Time;durP1;ratioP1;P1;durP2;ratioP2;P2;SDS_P1;SDS_P2;PMS_P1;PMS_P2;Temp;Humidity;BMP_temperature;BMP_pressure;BME280_temperature;BME280_humidity;BME280_pressure;Samples;Min_cycle;Max_cycle;Signal;HPM_P1;HPM_P2
2022/06/06 00:00:50;;;;;;;61.70;42.15;;;;;;;14.41;100.00;101358.38;4969798;28;20066;-71
2022/06/06 00:03:18;;;;;;;60.05;42.50;;;;;;;14.39;100.00;101354.84;4969059;28;20113;-70
2022/06/06 00:05:47;;;;;;;55.17;41.58;;;;;;;14.39;100.00;101354.00;4970963;28;20371;-71
2022/06/06 00:08:12;;;;;;;58.45;41.63;;;;;;;14.36;100.00;101354.78;4970363;28;20019;-70
2022/06/06 00:10:39;;;;;;;53.25;39.20;;;;;;;14.36;100.00;101354.78;4969641;28;20504;-72
2022/06/06 00:13:06;;;;;;;55.95;39.40;;;;;;;14.35;100.00;101355.66;4969916;28;20371;-71
2022/06/06 00:15:31;;;;;;;59.88;41.13;;;;;;;14.33;100.00;101359.94;4969611;28;20105;-71
2022/06/06 00:17:56;;;;;;;53.30;37.88;;;;;;;14.33;100.00;101359.03;4969802;28;20471;-71
2022/06/06 00:20:22;;;;;;;50.47;36.85;;;;;;;14.33;100.00;101354.72;4969543;28;20038;-71
2022/06/06 00:22:48;;;;;;;50.30;38.13;;;;;;;14.34;100.00;101359.09;4970147;28;20093;-70
2022/06/06 00:25:14;;;;;;;48.20;37.25;;;;;;;14.33;100.00;101348.63;4969929;28;20018;-71
2022/06/06 00:27:39;;;;;;;51.83;37.58;;;;;;;14.33;100.00;101339.09;4969897;28;20031;-71
2022/06/06 00:30:05;;;;;;;54.83;38.38;;;;;;;14.32;100.00;101341.66;4969368;28;20042;-70
2022/06/06 00:35:14;;;;;;;54.30;37.53;;;;;;;14.26;100.00;101337.16;4969672;28;20041;-70
2022/06/06 00:37:42;;;;;;;52.53;36.22;;;;;;;14.23;100.00;101339.72;4970025;28;20026;-71
2022/06/06 00:40:09;;;;;;;50.67;35.60;;;;;;;14.20;100.00;101337.88;4969971;28;20026;-71
2022/06/06 00:42:38;;;;;;;52.20;36.25;;;;;;;14.22;100.00;101325.78;4970277;28;20435;-71
2022/06/06 00:45:28;;;;;;;52.40;34.92;;;;;;;14.22;100.00;101332.72;4969537;28;20517;-70
2022/06/06 00:48:18;;;;;;;50.53;35.08;;;;;;;14.22;100.00;101336.22;4969627;28;20030;-71
2022/06/06 00:50:50;;;;;;;53.90;35.33;;;;;;;14.22;100.00;101328.41;4969440;28;20018;-71
2022/06/06 00:53:20;;;;;;;50.53;36.17;;;;;;;14.21;100.00;101334.44;4969920;28;20069;-71
2022/06/06 00:55:51;;;;;;;55.35;36.17;;;;;;;14.16;100.00;101334.31;4968995;28;20037;-70
2022/06/06 00:58:20;;;;;;;54.60;36.70;;;;;;;14.17;100.00;101328.25;4969595;28;20033;-71
2022/06/06 01:00:48;;;;;;;48.17;34.03;;;;;;;14.19;100.00;101324.81;4969474;28;20062;-70
2022/06/06 01:03:17;;;;;;;47.45;34.00;;;;;;;14.21;100.00;101333.56;4965100;28;20031;-70
2022/06/06 01:05:47;;;;;;;48.72;34.13;;;;;;;14.22;100.00;101335.31;4969392;28;20050;-71
2022/06/06 01:08:14;;;;;;;53.05;35.72;;;;;;;14.21;100.00;101330.97;4969056;28;20399;-70
2022/06/06 01:10:39;;;;;;;55.13;35.28;;;;;;;14.20;100.00;101331.78;4969359;28;20042;-71
2022/06/06 01:13:08;;;;;;;50.28;35.58;;;;;;;14.16;100.00;101330.81;4969424;28;20041;-71
2022/06/06 01:15:47;;;;;;;57.03;35.58;;;;;;;14.12;100.00;101335.09;4969472;28;20042;-71
2022/06/06 01:18:30;;;;;;;50.83;36.10;;;;;;;14.10;100.00;101335.91;4969024;28;20289;-71
2022/06/06 01:21:18;;;;;;;57.53;39.10;;;;;;;14.07;100.00;101331.47;4968497;28;20042;-70
2022/06/06 01:24:28;;;;;;;63.35;40.83;;;;;;;14.03;100.00;101322.69;4969079;28;20113;-71
2022/06/06 01:27:31;;;;;;;63.53;40.40;;;;;;;14.02;100.00;101317.47;4968944;28;20448;-71
2022/06/06 01:30:01;;;;;;;66.30;44.83;;;;;;;13.99;100.00;101320.00;4968509;28;20040;-71
2022/06/06 01:32:27;;;;;;;68.18;45.70;;;;;;;13.98;100.00;101331.25;4968179;28;20033;-71
2022/06/06 01:34:54;;;;;;;70.93;45.65;;;;;;;13.96;100.00;101333.81;4968689;28;20026;-71
2022/06/06 01:37:41;;;;;;;69.63;48.20;;;;;;;13.96;100.00;101335.56;4968487;28;20042;-70
2022/06/06 01:40:12;;;;;;;70.22;48.65;;;;;;;13.94;100.00;101330.31;4968575;28;20126;-70
2022/06/06 01:43:00;;;;;;;70.07;49.88;;;;;;;13.95;100.00;101328.56;4966403;28;20031;-71
2022/06/06 01:45:33;;;;;;;67.47;48.85;;;;;;;13.95;100.00;101325.97;4969021;28;20038;-71
2022/06/06 01:48:15;;;;;;;65.75;47.63;;;;;;;13.97;100.00;101326.88;4966385;28;20466;-68
2022/06/06 01:50:43;;;;;;;68.10;47.88;;;;;;;13.95;100.00;101331.16;4968718;28;20269;-70
2022/06/06 01:53:12;;;;;;;68.35;49.25;;;;;;;13.97;100.00;101324.28;4969182;28;20026;-71
2022/06/06 01:55:39;;;;;;;69.25;49.05;;;;;;;13.98;100.00;101323.41;4968541;28;20038;-70
2022/06/06 01:58:10;;;;;;;71.90;48.08;;;;;;;13.97;100.00;101326.88;4968800;28;20019;-71
2022/06/06 02:00:37;;;;;;;68.22;45.63;;;;;;;13.99;100.00;101328.69;4968664;28;20391;-72
2022/06/06 02:03:03;;;;;;;60.85;44.33;;;;;;;13.98;100.00;101320.81;4954963;28;20331;-70
2022/06/06 02:05:29;;;;;;;55.78;41.58;;;;;;;13.98;100.00;101320.81;4969013;28;20383;-71
2022/06/06 02:07:54;;;;;;;56.95;41.17;;;;;;;13.97;100.00;101308.66;4968970;28;20468;-71
2022/06/06 02:10:20;;;;;;;57.53;40.33;;;;;;;13.96;100.00;101312.97;4969088;28;20073;-71
2022/06/06 02:12:46;;;;;;;52.35;39.03;;;;;;;13.98;100.00;101311.28;4968473;28;20439;-70
2022/06/06 02:15:14;;;;;;;55.60;37.45;;;;;;;14.00;100.00;101298.28;4967729;28;20026;-71
2022/06/06 02:17:40;;;;;;;52.63;38.92;;;;;;;14.01;100.00;101292.25;4967814;28;20522;-71
2022/06/06 02:20:07;;;;;;;53.42;36.58;;;;;;;13.99;100.00;101299.16;4968012;28;20074;-71
2022/06/06 02:22:32;;;;;;;48.50;36.20;;;;;;;14.00;100.00;101308.72;4968339;28;20157;-71
2022/06/06 02:24:58;;;;;;;51.28;36.97;;;;;;;14.01;100.00;101305.28;4967695;28;20550;-70
2022/06/06 02:27:24;;;;;;;51.42;36.20;;;;;;;14.00;100.00;101298.28;4967763;28;20026;-69
2022/06/06 02:29:50;;;;;;;46.22;34.47;;;;;;;13.99;100.00;101301.75;4951121;28;20388;-71
2022/06/06 02:32:15;;;;;;;45.60;34.85;;;;;;;14.00;100.00;101303.50;4968327;28;20360;-71
2022/06/06 02:34:40;;;;;;;48.38;35.42;;;;;;;13.99;100.00;101306.97;4968576;28;20089;-71
2022/06/06 02:37:06;;;;;;;45.95;33.90;;;;;;;13.99;100.00;101307.84;4968071;28;20023;-70
2022/06/06 02:39:31;;;;;;;50.25;34.35;;;;;;;14.01;100.00;101310.50;4968416;28;20087;-70
2022/06/06 02:41:56;;;;;;;45.88;34.53;;;;;;;14.01;100.00;101300.94;4967960;28;20034;-71
2022/06/06 02:44:23;;;;;;;55.05;36.17;;;;;;;14.01;100.00;101295.72;4968462;28;20019;-71
2022/06/06 02:46:48;;;;;;;51.00;36.75;;;;;;;14.01;100.00;101300.06;4968290;28;20069;-70
2022/06/06 02:49:14;;;;;;;46.80;34.80;;;;;;;14.01;100.00;101297.47;4968347;28;20082;-71
2022/06/06 02:51:39;;;;;;;52.38;36.55;;;;;;;13.98;100.00;101294.75;4968721;28;20038;-71
2022/06/06 02:54:05;;;;;;;52.45;35.92;;;;;;;13.97;100.00;101295.63;4967820;28;20049;-68
2022/06/06 02:56:30;;;;;;;52.05;36.22;;;;;;;13.95;100.00;101292.09;4967978;28;20030;-71
2022/06/06 02:59:00;;;;;;;50.38;36.30;;;;;;;13.95;100.00;101297.31;4968048;28;20019;-71
2022/06/06 03:01:25;;;;;;;47.08;34.33;;;;;;;13.92;100.00;101306.78;4964901;28;20380;-71
2022/06/06 03:03:51;;;;;;;49.47;34.42;;;;;;;13.90;100.00;101299.81;4958212;28;20030;-71
2022/06/06 03:06:33;;;;;;;51.65;36.13;;;;;;;13.87;100.00;101292.78;4968127;28;20026;-70
2022/06/06 03:09:19;;;;;;;54.33;36.95;;;;;;;13.87;100.00;101302.34;4968206;28;20034;-71
2022/06/06 03:11:47;;;;;;;50.03;35.35;;;;;;;13.88;100.00;101294.56;4968079;28;20027;-68
2022/06/06 03:15:00;;;;;;;50.47;34.78;;;;;;;13.85;100.00;101299.66;4968449;28;20034;-71
2022/06/06 03:20:54;;;;;;;54.88;38.40;;;;;;;13.83;100.00;101306.59;4954653;28;20095;-70
2022/06/06 03:23:37;;;;;;;55.40;37.30;;;;;;;13.78;100.00;101298.63;4966568;28;20030;-71
2022/06/06 03:26:32;;;;;;;52.40;36.33;;;;;;;13.77;100.00;101306.41;4966424;28;20022;-71
2022/06/06 03:29:00;;;;;;;51.28;35.20;;;;;;;13.75;100.00;101308.97;4944624;29;20089;-71
2022/06/06 03:31:52;;;;;;;54.13;35.33;;;;;;;13.73;100.00;101312.38;4958996;28;20027;-70
2022/06/06 03:34:34;;;;;;;53.33;36.10;;;;;;;13.73;100.00;101314.97;4954382;28;20038;-71
2022/06/06 03:37:27;;;;;;;46.05;34.38;;;;;;;13.72;100.00;101314.13;4965588;28;20387;-71
2022/06/06 03:40:11;;;;;;;48.55;33.72;;;;;;;13.71;100.00;101306.25;4966046;28;20533;-70
2022/06/06 03:42:53;;;;;;;48.30;33.67;;;;;;;13.67;100.00;101307.91;4967828;28;20033;-71
2022/06/06 03:45:45;;;;;;;49.70;32.70;;;;;;;13.63;100.00;101309.53;4967981;28;20411;-71
2022/06/06 03:48:13;;;;;;;43.20;32.53;;;;;;;13.61;100.00;101315.53;4965909;28;20377;-70
2022/06/06 03:50:44;;;;;;;43.45;34.25;;;;;;;13.60;100.00;101314.66;4971168;28;20100;-71
2022/06/06 03:53:27;;;;;;;40.20;32.40;;;;;;;13.60;100.00;101319.00;4970716;28;20027;-71
2022/06/06 03:56:17;;;;;;;40.63;31.05;;;;;;;13.57;100.00;101311.97;4970840;28;20026;-68
2022/06/06 03:58:43;;;;;;;40.17;30.48;;;;;;;13.55;100.00;101313.63;4971032;28;20030;-70
2022/06/06 04:01:10;;;;;;;35.67;29.48;;;;;;;13.54;100.00;101319.69;4969547;28;20518;-71
2022/06/06 04:03:37;;;;;;;36.83;28.40;;;;;;;13.49;100.00;101316.91;4959205;28;20027;-69
2022/06/06 04:06:04;;;;;;;35.38;27.50;;;;;;;13.45;100.00;101310.75;4970542;28;20573;-71
2022/06/06 04:08:32;;;;;;;34.00;28.08;;;;;;;13.40;100.00;101320.16;4970873;28;20034;-70
2022/06/06 04:11:18;;;;;;;36.15;26.00;;;;;;;13.36;100.00;101310.50;4953633;28;20035;-70
2022/06/06 04:14:00;;;;;;;33.63;26.45;;;;;;;13.32;100.00;101325.16;4970914;28;20038;-71
2022/06/06 04:16:44;;;;;;;32.72;25.27;;;;;;;13.29;100.00;101334.59;4970795;28;20031;-70
2022/06/06 04:19:24;;;;;;;30.88;24.67;;;;;;;13.29;100.00;101335.47;4970826;28;20034;-71
2022/06/06 04:22:09;;;;;;;33.97;24.05;;;;;;;13.29;100.00;101332.00;4970546;28;20130;-70
2022/06/06 04:24:56;;;;;;;29.80;23.27;;;;;;;13.30;100.00;101337.25;4971189;28;20057;-70
2022/06/06 04:27:38;;;;;;;33.75;23.33;;;;;;;13.28;100.00;101340.63;4970401;28;20038;-70
2022/06/06 04:30:14;;;;;;;27.48;20.85;;;;;;;13.26;100.00;101347.53;4970580;28;20566;-70
2022/06/06 04:33:00;;;;;;;26.60;21.42;;;;;;;13.25;100.00;101340.53;4971271;28;20026;-71
2022/06/06 04:35:48;;;;;;;27.75;20.88;;;;;;;13.23;100.00;101350.03;4970448;28;20500;-71
2022/06/06 04:38:32;;;;;;;28.92;21.23;;;;;;;13.23;100.00;101355.22;4970179;28;20031;-71
2022/06/06 04:41:20;;;;;;;24.63;20.15;;;;;;;13.19;100.00;101351.66;4957894;28;20023;-70
2022/06/06 04:44:00;;;;;;;27.52;21.02;;;;;;;13.21;100.00;101356.09;4970365;28;20058;-71
2022/06/06 04:46:48;;;;;;;24.55;20.40;;;;;;;13.24;100.00;101357.00;4969892;28;20027;-71
2022/06/06 04:49:15;;;;;;;23.48;20.55;;;;;;;13.25;100.00;101353.56;4954853;28;20043;-70
2022/06/06 04:51:43;;;;;;;21.52;18.63;;;;;;;13.26;100.00;101357.94;4970352;28;20497;-68
2022/06/06 04:54:15;;;;;;;25.10;20.23;;;;;;;13.27;100.00;101352.78;4970692;28;20570;-71
2022/06/06 04:56:41;;;;;;;;;;;;;;;13.31;100.00;101358.97;4971013;28;20150;-71
2022/06/06 04:59:09;;;;;;;23.85;20.00;;;;;;;13.25;100.00;101353.56;4969184;28;19917;-70
2022/06/06 05:01:35;;;;;;;22.10;19.27;;;;;;;13.28;100.00;101358.84;4965249;28;20038;-71
2022/06/06 05:04:01;;;;;;;22.15;19.55;;;;;;;13.29;100.00;101356.28;4961615;28;20443;-68
2022/06/06 05:06:44;;;;;;;23.63;20.85;;;;;;;13.24;100.00;101352.66;4969994;28;20341;-69
2022/06/06 05:09:35;;;;;;;25.58;22.85;;;;;;;13.20;100.00;101358.63;4970281;28;20062;-70
2022/06/06 05:12:15;;;;;;;23.92;21.52;;;;;;;13.18;100.00;101358.59;4970059;28;20022;-70
2022/06/06 05:14:52;;;;;;;23.65;21.17;;;;;;;13.23;100.00;101355.22;4969555;28;20030;-70
2022/06/06 05:17:28;;;;;;;24.75;22.38;;;;;;;13.28;100.00;101353.63;4969934;28;20027;-70
2022/06/06 05:20:13;;;;;;;23.90;21.70;;;;;;;13.29;100.00;101351.06;4969530;28;20030;-70
2022/06/06 05:22:49;;;;;;;25.77;23.15;;;;;;;13.33;100.00;101352.06;4970313;28;20146;-70
2022/06/06 05:25:14;;;;;;;25.67;23.38;;;;;;;13.32;100.00;101355.50;4969377;28;20468;-71
2022/06/06 05:27:58;;;;;;;25.35;22.27;;;;;;;13.36;100.00;101367.78;4969311;28;20034;-71
2022/06/06 05:30:47;;;;;;;25.13;22.73;;;;;;;13.41;100.00;101366.19;4969149;28;20534;-70
2022/06/06 05:33:31;;;;;;;24.17;21.90;;;;;;;13.43;100.00;101369.72;4960513;28;20058;-70
2022/06/06 05:36:27;;;;;;;21.95;20.02;;;;;;;13.39;100.00;101365.25;4957612;28;20045;-71
2022/06/06 05:39:29;;;;;;;23.80;21.60;;;;;;;13.42;100.00;101377.50;4963362;28;20034;-70
2022/06/06 05:42:15;;;;;;;23.00;20.85;;;;;;;13.48;100.00;101372.44;4963178;28;20034;-70
2022/06/06 05:44:52;;;;;;;21.17;19.17;;;;;;;13.52;100.00;101369.13;4969287;28;20045;-72
2022/06/06 05:47:36;;;;;;;21.52;19.58;;;;;;;13.57;100.00;101372.75;4969191;28;20069;-70
2022/06/06 05:50:20;;;;;;;22.17;20.08;;;;;;;13.65;100.00;101372.06;4968562;28;20041;-70
2022/06/06 05:53:10;;;;;;;20.52;18.50;;;;;;;13.68;100.00;101374.75;4969132;28;20070;-71
2022/06/06 05:55:38;;;;;;;21.05;19.00;;;;;;;13.66;100.00;101376.44;4968794;28;20023;-70
2022/06/06 05:58:23;;;;;;;20.63;18.75;;;;;;;13.63;100.00;101374.66;4968426;28;20026;-70
2022/06/06 06:01:07;;;;;;;20.13;18.20;;;;;;;13.65;100.00;101375.53;4961447;28;20054;-71
2022/06/06 06:03:47;;;;;;;20.83;18.95;;;;;;;13.78;100.00;101375.91;4967234;28;20120;-68
2022/06/06 06:06:24;;;;;;;19.02;17.02;;;;;;;13.89;100.00;101373.56;4968341;28;20370;-69
2022/06/06 06:09:01;;;;;;;19.27;17.58;;;;;;;13.99;100.00;101379.91;4968403;28;20347;-71
2022/06/06 06:11:45;;;;;;;17.60;16.10;;;;;;;14.00;100.00;101379.06;4968420;28;20023;-71
2022/06/06 06:14:47;;;;;;;18.60;16.88;;;;;;;14.10;100.00;101378.50;4968022;28;20026;-71
2022/06/06 06:17:16;;;;;;;18.40;16.70;;;;;;;14.21;100.00;101381.34;4964064;28;20031;-68
2022/06/06 06:20:01;;;;;;;17.35;15.75;;;;;;;14.31;100.00;101386.78;4968114;28;20472;-69
2022/06/06 06:22:34;;;;;;;15.00;13.80;;;;;;;14.40;100.00;101379.22;4968899;28;20037;-70
2022/06/06 06:25:01;;;;;;;16.77;15.10;;;;;;;14.53;100.00;101383.00;4967385;28;20024;-70
2022/06/06 06:27:28;;;;;;;13.23;11.95;;;;;;;14.60;100.00;101384.91;4968639;28;20492;-71
2022/06/06 06:29:53;;;;;;;13.13;11.90;;;;;;;14.70;100.00;101395.56;4968563;28;20429;-70
2022/06/06 06:32:40;;;;;;;12.13;10.77;;;;;;;14.75;99.99;101388.75;4968338;28;20033;-68
2022/06/06 06:35:34;;;;;;;10.70;9.52;;;;;;;14.84;100.00;101401.16;4966364;28;20031;-69
2022/06/06 06:38:21;;;;;;;8.82;7.93;;;;;;;14.93;100.00;101403.94;4967051;28;20105;-70
2022/06/06 06:40:55;;;;;;;7.57;6.45;;;;;;;14.93;98.52;101397.88;4967538;28;20031;-69
2022/06/06 06:43:33;;;;;;;7.63;5.93;;;;;;;14.87;96.79;101402.09;4967466;28;20023;-69
2022/06/06 06:46:01;;;;;;;5.80;5.20;;;;;;;15.04;98.85;101404.19;4963676;28;20315;-67
2022/06/06 06:48:44;;;;;;;5.45;4.93;;;;;;;15.25;97.56;101409.00;4968059;28;20023;-71
2022/06/06 06:51:22;;;;;;;6.40;5.00;;;;;;;15.52;98.11;101409.56;4965263;28;20387;-70
2022/06/06 06:54:08;;;;;;;6.30;4.85;;;;;;;15.46;93.23;101407.72;4963106;28;20031;-71
2022/06/06 06:56:42;;;;;;;8.68;5.05;;;;;;;15.44;96.93;101419.84;4967200;28;20038;-72
2022/06/06 06:59:19;;;;;;;6.18;4.38;;;;;;;15.42;97.12;101411.09;4966017;28;20105;-70
2022/06/06 07:11:20;;;;;;;3.83;2.75;;;;;;;16.06;91.89;101408.88;4967024;28;20146;-72
2022/06/06 07:14:03;;;;;;;6.82;3.00;;;;;;;16.29;85.86;101414.53;4955339;28;20586;-70
2022/06/06 07:16:32;;;;;;;3.78;1.90;;;;;;;16.43;85.91;101411.25;4966232;28;20031;-71
2022/06/06 07:19:19;;;;;;;3.78;1.55;;;;;;;16.43;82.27;101411.25;4966790;28;20094;-71
2022/06/06 07:21:46;;;;;;;3.47;1.73;;;;;;;16.33;80.98;101416.31;4965613;28;20290;-70
2022/06/06 07:24:17;;;;;;;3.80;1.90;;;;;;;16.11;79.14;101408.97;4969749;28;20051;-71
2022/06/06 07:26:43;;;;;;;5.05;1.90;;;;;;;15.98;83.27;101406.09;4969776;28;20063;-70
2022/06/06 07:29:12;;;;;;;4.05;2.05;;;;;;;15.92;85.68;101424.28;4970042;28;20105;-71
2022/06/06 07:32:36;;;;;;;2.80;1.88;;;;;;;15.92;88.96;101419.91;4971693;28;20391;-71
2022/06/06 07:35:22;;;;;;;2.15;1.60;;;;;;;16.13;84.90;101418.59;4949307;29;20545;-70
2022/06/06 07:38:28;;;;;;;3.90;1.85;;;;;;;16.43;87.98;101421.72;4949668;29;20039;-71
2022/06/06 07:41:27;;;;;;;2.55;1.50;;;;;;;16.46;80.06;101427.00;4917900;29;20071;-72
2022/06/06 07:44:26;;;;;;;2.95;1.25;;;;;;;16.48;77.97;101429.66;4930487;29;20035;-71
2022/06/06 07:47:00;;;;;;;3.45;1.60;;;;;;;16.38;78.08;101429.50;4968007;28;20483;-72
2022/06/06 07:49:47;;;;;;;2.38;1.45;;;;;;;16.41;81.65;101440.00;4971253;28;20034;-70
2022/06/06 07:52:35;;;;;;;3.80;1.23;;;;;;;16.39;79.29;101427.72;4971841;28;20471;-70
2022/06/06 07:55:25;;;;;;;3.15;1.02;;;;;;;16.50;78.96;101443.63;4971768;28;20322;-71
2022/06/06 07:58:08;;;;;;;2.47;1.33;;;;;;;16.49;75.26;101429.69;4957584;28;20569;-71
2022/06/06 08:00:33;;;;;;;3.53;1.13;;;;;;;16.56;77.37;101428.94;4971364;28;20428;-71
2022/06/06 08:03:06;;;;;;;2.85;1.15;;;;;;;16.48;74.63;101408.72;4957517;28;20110;-71
2022/06/06 08:05:50;;;;;;;3.95;1.17;;;;;;;16.43;75.92;101424.31;4971667;28;20085;-71
2022/06/06 08:08:51;;;;;;;1.80;1.20;;;;;;;16.55;80.06;101419.31;4971042;28;20566;-71
2022/06/06 08:11:49;;;;;;;2.20;1.00;;;;;;;16.72;78.87;101420.44;4970560;28;20093;-69
2022/06/06 08:14:42;;;;;;;1.90;1.00;;;;;;;16.88;77.13;101424.16;4955398;28;20051;-71
2022/06/06 08:17:25;;;;;;;1.95;0.90;;;;;;;17.38;77.54;101419.63;4959338;28;20030;-71
2022/06/06 08:20:09;;;;;;;2.33;1.30;;;;;;;17.60;75.58;101423.41;4970981;28;20386;-71
2022/06/06 08:22:38;;;;;;;5.63;1.40;;;;;;;17.39;71.46;101424.91;4970850;28;20043;-71
2022/06/06 08:25:06;;;;;;;2.72;0.93;;;;;;;17.26;72.73;101420.38;4970638;28;20452;-72
2022/06/06 08:27:33;;;;;;;2.33;1.17;;;;;;;17.06;75.31;101415.69;4971003;28;20086;-71
2022/06/06 08:29:58;;;;;;;3.58;1.17;;;;;;;16.96;75.49;101422.56;4970835;28;20045;-71
2022/06/06 08:32:25;;;;;;;1.88;1.02;;;;;;;16.86;75.51;101416.28;4970964;28;20478;-71
2022/06/06 08:34:50;;;;;;;2.25;1.02;;;;;;;16.85;77.90;101413.66;4970859;28;20050;-71
2022/06/06 08:37:46;;;;;;;3.70;1.10;;;;;;;16.97;77.78;101403.34;4970455;28;20066;-72
2022/06/06 08:40:49;;;;;;;2.17;1.23;;;;;;;17.00;77.02;101403.41;4970256;28;20061;-71
2022/06/06 08:43:45;;;;;;;2.25;1.10;;;;;;;17.15;77.62;101401.88;4970799;28;20367;-71
2022/06/06 08:46:35;;;;;;;1.58;0.80;;;;;;;17.18;75.82;101406.28;4959028;28;20027;-72
2022/06/06 08:49:10;;;;;;;2.35;0.90;;;;;;;17.25;75.41;101397.66;4970049;28;20105;-71
2022/06/06 08:51:51;;;;;;;1.58;0.80;;;;;;;17.26;72.41;101402.03;4952729;28;20023;-71
2022/06/06 08:54:50;;;;;;;4.10;1.20;;;;;;;17.33;74.23;101395.13;4969999;28;20027;-70
2022/06/06 08:57:38;;;;;;;2.85;1.08;;;;;;;17.33;74.32;101396.00;4970066;28;20038;-71
2022/06/06 09:00:24;;;;;;;4.97;1.48;;;;;;;17.33;73.13;101402.97;4970347;28;20031;-70
2022/06/06 09:02:58;;;;;;;5.38;1.70;;;;;;;17.36;73.62;101390.81;4956528;28;20023;-71
2022/06/06 09:05:45;;;;;;;1.60;1.50;;;;;;;17.34;72.07;101403.00;4969738;28;20038;-68
2022/06/06 09:08:29;;;;;;;2.08;1.27;;;;;;;17.48;72.99;101395.34;4969983;28;20061;-71
2022/06/06 09:11:11;;;;;;;2.88;1.23;;;;;;;17.79;73.27;101396.53;4970101;28;20033;-71
2022/06/06 09:14:15;;;;;;;4.43;1.50;;;;;;;18.15;71.03;101400.41;4957323;28;20534;-71
2022/06/06 09:17:01;;;;;;;6.55;1.52;;;;;;;18.46;68.90;101395.44;4969536;28;20023;-71
2022/06/06 09:20:15;;;;;;;1.85;1.10;;;;;;;18.46;68.47;101392.81;4969525;28;20038;-71
2022/06/06 09:22:52;;;;;;;2.85;1.08;;;;;;;18.26;68.07;101395.25;4960230;28;20459;-71
2022/06/06 09:26:00;;;;;;;2.60;1.23;;;;;;;17.87;69.34;101397.50;4969761;28;20019;-71
2022/06/06 09:28:53;;;;;;;2.28;0.90;;;;;;;17.53;70.65;101392.75;4969263;28;20480;-71
2022/06/06 09:31:52;;;;;;;2.10;0.98;;;;;;;17.27;68.97;101386.34;4969579;28;20034;-71
2022/06/06 09:34:46;;;;;;;2.63;1.35;;;;;;;17.14;72.74;101384.44;4957523;28;20142;-70
2022/06/06 09:37:33;;;;;;;3.72;0.90;;;;;;;17.01;73.07;101384.22;4969510;28;20546;-71
2022/06/06 09:40:29;;;;;;;2.22;1.30;;;;;;;17.02;72.64;101385.97;4969682;28;20388;-71
2022/06/06 09:43:08;;;;;;;1.42;0.80;;;;;;;17.10;71.80;101378.28;4958712;28;20443;-70
2022/06/06 09:45:58;;;;;;;5.88;1.00;;;;;;;17.38;72.84;101369.88;4969045;28;20033;-70
2022/06/06 09:48:42;;;;;;;2.60;1.25;;;;;;;17.59;69.84;101371.00;4969688;28;20089;-71
2022/06/06 09:51:25;;;;;;;1.77;0.80;;;;;;;18.04;69.31;101378.44;4956097;28;20031;-71
2022/06/06 10:00:51;;;;;;;1.80;0.80;;;;;;;19.01;63.67;101368.66;4969268;28;20045;-72
2022/06/06 10:03:34;;;;;;;1.27;0.80;;;;;;;19.17;62.01;101364.41;4955577;28;20030;-71
2022/06/06 10:06:06;;;;;;;1.60;0.75;;;;;;;18.94;61.69;101365.13;4968760;28;20107;-71
2022/06/06 10:08:43;;;;;;;3.10;1.00;;;;;;;18.77;63.53;101359.78;4955478;28;20085;-71
2022/06/06 10:11:49;;;;;;;2.78;1.00;;;;;;;18.59;64.90;101361.41;4969396;28;20136;-71
2022/06/06 10:14:39;;;;;;;3.17;1.00;;;;;;;18.32;63.63;101358.59;4959712;28;20057;-71
2022/06/06 10:17:19;;;;;;;3.25;0.82;;;;;;;18.08;65.96;101356.63;4955667;28;20037;-71
2022/06/06 10:19:53;;;;;;;1.73;0.85;;;;;;;17.96;66.01;101360.88;4968794;28;20023;-71
2022/06/06 10:22:43;;;;;;;2.90;0.90;;;;;;;18.00;68.26;101362.69;4968855;28;20054;-71
2022/06/06 10:25:26;;;;;;;3.30;0.95;;;;;;;17.90;65.19;101345.09;4968913;28;20486;-71
2022/06/06 10:28:03;;;;;;;0.77;0.73;;;;;;;17.86;65.75;101348.56;4968021;28;20072;-68
2022/06/06 10:30:50;;;;;;;1.35;0.80;;;;;;;17.68;65.00;101342.28;4968217;28;20030;-70
2022/06/06 10:33:35;;;;;;;3.17;1.25;;;;;;;17.63;64.81;101341.31;4968384;28;20027;-71
2022/06/06 10:36:22;;;;;;;2.30;0.90;;;;;;;17.92;67.00;101340.75;4956592;28;20087;-70
2022/06/06 10:39:16;;;;;;;1.98;0.90;;;;;;;18.41;67.39;101341.16;4968105;28;20430;-70
2022/06/06 10:41:59;;;;;;;2.78;0.88;;;;;;;18.81;63.54;101345.81;4968702;28;20033;-71
2022/06/06 10:44:48;;;;;;;2.67;0.90;;;;;;;18.94;61.88;101347.63;4956640;28;20484;-71
2022/06/06 10:47:19;;;;;;;1.92;0.80;;;;;;;18.89;62.56;101345.88;4967953;28;20456;-70
2022/06/06 10:50:00;;;;;;;2.90;0.98;;;;;;;18.62;61.89;101364.06;4968553;28;20035;-71
2022/06/06 10:53:00;;;;;;;3.45;1.27;;;;;;;18.45;64.83;101369.19;4968361;28;20101;-70
2022/06/06 10:55:43;;;;;;;1.70;0.73;;;;;;;18.41;64.22;101359.53;4968069;28;20034;-70
2022/06/06 10:58:30;;;;;;;2.10;1.20;;;;;;;18.57;63.91;101355.28;4970190;28;20582;-71
2022/06/06 11:01:33;;;;;;;2.65;0.98;;;;;;;18.74;63.25;101344.91;4987248;28;20026;-71
2022/06/06 11:04:05;;;;;;;2.15;1.00;;;;;;;18.94;65.39;101342.38;4963197;28;20110;-71
2022/06/06 11:06:45;;;;;;;1.95;0.88;;;;;;;19.28;66.89;101340.81;4972112;28;20015;-70
2022/06/06 11:09:58;;;;;;;3.58;0.80;;;;;;;19.50;64.96;101340.88;4972489;28;20037;-71
2022/06/06 11:12:50;;;;;;;4.05;0.80;;;;;;;19.56;62.28;101339.13;4930109;29;20043;-71
2022/06/06 11:15:15;;;;;;;7.40;1.10;;;;;;;19.44;60.08;101336.47;4971231;28;20026;-70
2022/06/06 11:18:05;;;;;;;2.38;0.80;;;;;;;19.30;61.58;101331.19;4972110;28;20470;-71
2022/06/06 11:20:50;;;;;;;3.70;0.98;;;;;;;19.11;61.40;101333.69;4971990;28;20097;-70
2022/06/06 11:23:16;;;;;;;2.20;0.82;;;;;;;18.98;63.71;101321.41;4971803;28;20582;-70
2022/06/06 11:26:09;;;;;;;1.50;0.60;;;;;;;18.92;62.45;101315.25;4971651;28;20113;-69
2022/06/06 11:28:58;;;;;;;1.52;0.70;;;;;;;18.88;62.04;101316.09;4971969;28;20030;-71
2022/06/06 11:31:49;;;;;;;2.90;0.50;;;;;;;18.85;62.91;101302.97;4971323;28;20046;-71
2022/06/06 11:34:37;;;;;;;4.95;1.23;;;;;;;18.78;63.22;101309.06;4960456;28;20122;-71
2022/06/06 11:37:41;;;;;;;3.08;0.73;;;;;;;18.57;59.12;101311.56;4971710;28;20122;-71
2022/06/06 11:40:21;;;;;;;1.90;0.75;;;;;;;18.38;60.40;101315.81;4970771;28;20015;-70
2022/06/06 11:43:09;;;;;;;2.37;0.73;;;;;;;18.22;59.07;101320.06;4971952;28;20034;-71
2022/06/06 11:46:12;;;;;;;3.10;0.70;;;;;;;18.41;61.83;101321.06;4953089;28;20278;-71
2022/06/06 11:49:13;;;;;;;4.82;0.98;;;;;;;18.51;59.92;101318.50;4971138;28;20023;-69
2022/06/06 11:52:24;;;;;;;2.53;0.70;;;;;;;18.39;60.19;101317.56;4971239;28;20173;-71
2022/06/06 11:55:19;;;;;;;3.73;0.80;;;;;;;18.39;61.66;101321.91;4944337;28;20048;-70
2022/06/06 11:58:21;;;;;;;3.63;1.00;;;;;;;18.40;62.14;101321.94;4971126;28;20675;-71
2022/06/06 12:00:55;;;;;;;2.75;0.70;;;;;;;18.27;60.79;101327.97;4971459;28;20057;-71
2022/06/06 12:03:42;;;;;;;6.50;0.90;;;;;;;18.23;62.01;101320.06;4956794;28;20030;-71
2022/06/06 12:06:13;;;;;;;2.17;0.70;;;;;;;18.15;62.25;101321.75;4971152;28;20026;-70
2022/06/06 12:09:14;;;;;;;5.03;0.90;;;;;;;18.11;63.61;101320.78;4970933;28;20448;-70
2022/06/06 12:11:52;;;;;;;1.15;0.43;;;;;;;18.07;63.06;101316.41;4948792;29;20035;-71
2022/06/06 12:14:26;;;;;;;2.45;0.60;;;;;;;18.03;63.20;101318.97;4962529;28;20038;-70
2022/06/06 12:16:58;;;;;;;1.52;0.80;;;;;;;17.93;63.27;101313.69;4970306;28;20273;-71
2022/06/06 12:19:34;;;;;;;2.30;0.90;;;;;;;17.88;63.58;101324.09;4970701;28;20031;-71
2022/06/06 12:22:18;;;;;;;2.65;0.60;;;;;;;17.83;63.70;101327.53;4970707;28;20059;-71
2022/06/06 12:25:14;;;;;;;1.85;0.60;;;;;;;17.76;63.60;101317.00;4970360;28;20070;-70
2022/06/06 12:28:01;;;;;;;1.02;0.60;;;;;;;17.80;64.29;101324.91;4960902;28;20027;-71
2022/06/06 12:30:38;;;;;;;2.60;0.80;;;;;;;17.80;64.17;101322.28;4970113;28;20538;-70